Reklama

Seznam meteostanic a jejich METAR

Vyhledat místa podle abecedy:
A B C D E F G H I J K L M N O P Q R S T U V W X Y Z

Filtrovat:

ID stanice:
a/nebo
Název místa (fulltext):
 
Místo (ID)Naposledy načteno 
Holešov (Holesov) 04.06.2020 06:00 UTC Zobrazit data
Místo: Holešov
Teplota: 14 °C (pocitová: 12.9 °C)
Vítr: 1 m/s z(e) 220°
Počasí: skoro zataženo
Dohlednost: 35 km
Zákl. oblačnosti: 2/8 2700 m;4/8 6600 m
Vlhkost: 77%
Hamburg (EDDH) 04.06.2020 05:50 UTC Zobrazit METAR
EDDH 040550Z 09005KT CAVOK 14/10 Q0995 NOSIG
Hannover (EDDV) 04.06.2020 04:50 UTC Zobrazit METAR
EDDV 040450Z 09007KT CAVOK 15/12 Q0996 NOSIG
Hanoi (VVNB) 04.06.2020 06:00 UTC Zobrazit METAR
VVNB 040600Z 15005KT 080V200 9999 FEW044 35/24 Q1003 NOSIG
Harare (FVHA) 13.09.2018 03:00 UTC Zobrazit METAR
FVHA 130300Z 07008KT CAVOK 14/07 Q1022 NOSIG
Havana (MUHA) 04.06.2020 05:55 UTC Zobrazit METAR
MUHA 040555Z 07003KT 9000 BKN040 24/24 Q1014
Helsinki (EFHK) 04.06.2020 05:50 UTC Zobrazit METAR
EFHK 040550Z 36005KT CAVOK 14/06 Q1007 NOSIG
Hong Kong (VHHH) 04.06.2020 06:00 UTC Zobrazit METAR
VHHH 040600Z 21012KT 180V240 9999 SCT025 33/25 Q1008 NOSIG
Honiara (AGGH) 03.06.2020 02:00 UTC Zobrazit METAR
AGGH 030200Z 05010KT 9999 SCT021 32/26 Q1009
Horta (LPHR) 04.06.2020 06:00 UTC Zobrazit METAR
LPHR 040600Z 05021G31KT 9999 FEW012 SCT030 16/11 Q1016
Reklama

Lunární kalendář

  • zítraFáze měsíce uplnek
  • 13.06.Fáze měsíce posl_ctvrt
  • 21.06.Fáze měsíce nov
  • 28.06.Fáze měsíce prv_ctvrt



Reklama
Meteodomečky

Počasí na Váš email

Emaily jsou bez reklamy a bez spamu



Odhlásit newsletter

Reklama


Další české internetové stránky (nejen) o počasí najdete v katalogu TOPlist - weby o počasí nebo vyhledejte na internetu, co jste tu na 🌞 Slunečnu ⛅ zatím nenašli:

Reklama